createdAt,value
2023-05-10T00:01:25.504Z,11.77
2023-05-10T00:03:55.005Z,13.50
2023-05-10T00:06:25.028Z,11.48
2023-05-10T00:08:55.554Z,12.60
2023-05-10T00:11:25.413Z,12.02
2023-05-10T00:13:54.769Z,12.95
2023-05-10T00:16:23.402Z,13.75
2023-05-10T00:18:54.400Z,14.05
2023-05-10T00:21:22.729Z,12.85
2023-05-10T00:23:52.141Z,14.05
2023-05-10T00:26:21.662Z,13.32
2023-05-10T00:28:54.099Z,14.77
2023-05-10T00:31:23.627Z,13.10
2023-05-10T00:33:53.831Z,14.32
2023-05-10T00:36:24.512Z,12.80
2023-05-10T00:38:53.954Z,14.10
2023-05-10T00:41:23.377Z,11.77
2023-05-10T00:46:21.726Z,13.73
2023-05-10T00:48:50.820Z,13.77
2023-05-10T00:51:20.677Z,15.23
2023-05-10T00:53:49.114Z,14.55
2023-05-10T00:56:18.870Z,12.98
2023-05-10T00:58:48.356Z,13.10
2023-05-10T01:01:16.676Z,10.30
2023-05-10T01:03:49.206Z,12.50
2023-05-10T01:06:19.942Z,10.68
2023-05-10T01:08:50.890Z,13.05
2023-05-10T01:11:19.682Z,12.45
2023-05-10T01:13:54.657Z,11.90
2023-05-10T01:16:24.848Z,13.82
2023-05-10T01:18:55.076Z,14.70
2023-05-10T01:21:35.169Z,12.32
2023-05-10T01:24:29.029Z,14.48
2023-05-10T01:27:45.043Z,14.75
2023-05-10T01:30:52.804Z,14.93
2023-05-10T01:33:28.380Z,14.50
2023-05-10T01:36:05.374Z,15.00
2023-05-10T01:38:44.024Z,15.48
2023-05-10T01:41:22.085Z,13.95
2023-05-10T01:44:04.613Z,13.95
2023-05-10T01:46:39.916Z,14.70
2023-05-10T01:49:13.023Z,17.13
2023-05-10T01:51:49.190Z,17.08
2023-05-10T01:54:21.855Z,17.60
2023-05-10T01:56:59.452Z,15.77
2023-05-10T01:59:42.781Z,12.68
2023-05-10T02:02:14.133Z,12.10
2023-05-10T02:04:44.275Z,12.15
2023-05-10T02:07:15.090Z,11.75
2023-05-10T02:09:49.588Z,11.82
2023-05-10T02:12:20.175Z,11.50
2023-05-10T02:14:49.873Z,10.23
2023-05-10T02:17:18.698Z,10.18
2023-05-10T02:19:50.357Z,10.00
2023-05-10T02:22:21.995Z,7.57
2023-05-10T02:24:52.934Z,9.45
2023-05-10T02:27:24.001Z,9.10
2023-05-10T02:29:54.643Z,10.90
2023-05-10T02:32:26.500Z,8.23
2023-05-10T02:34:57.886Z,8.95
2023-05-10T02:37:29.392Z,5.90
2023-05-10T02:40:00.410Z,7.95
2023-05-10T02:42:31.447Z,7.68
2023-05-10T02:45:07.661Z,8.10
2023-05-10T02:47:39.014Z,5.20
2023-05-10T02:50:10.575Z,7.80
2023-05-10T02:52:45.082Z,8.82
2023-05-10T02:55:17.850Z,8.55
2023-05-10T02:57:57.136Z,9.10
2023-05-10T03:00:27.654Z,9.82
2023-05-10T03:02:56.488Z,10.13
2023-05-10T03:05:26.336Z,9.13
2023-05-10T03:07:56.665Z,13.10
2023-05-10T03:10:31.778Z,14.43
2023-05-10T03:13:15.348Z,13.50
2023-05-10T03:15:56.440Z,11.50
2023-05-10T03:18:30.566Z,10.10
2023-05-10T03:21:08.310Z,16.65
2023-05-10T03:23:44.313Z,14.55
2023-05-10T03:26:19.897Z,12.70
2023-05-10T03:28:52.128Z,14.30
2023-05-10T03:31:20.859Z,12.65
2023-05-10T03:33:52.467Z,12.88
2023-05-10T03:36:27.895Z,12.57
2023-05-10T03:38:58.012Z,12.90
2023-05-10T03:41:28.219Z,11.82
2023-05-10T03:43:56.460Z,7.75
2023-05-10T03:46:25.010Z,11.55
2023-05-10T03:48:54.774Z,16.80
2023-05-10T03:51:26.480Z,12.27
2023-05-10T03:53:56.541Z,11.48
2023-05-10T03:56:27.332Z,8.55
2023-05-10T03:58:55.826Z,9.85
2023-05-10T04:01:25.395Z,12.38
2023-05-10T04:03:53.538Z,10.10
2023-05-10T04:06:25.271Z,7.60
2023-05-10T04:08:57.408Z,8.23
2023-05-10T04:11:25.802Z,7.18
2023-05-10T04:13:55.571Z,5.63
2023-05-10T04:16:26.472Z,3.90
2023-05-10T04:18:54.652Z,5.07
2023-05-10T04:21:22.731Z,3.92
2023-05-10T04:23:52.054Z,3.15
2023-05-10T04:26:23.131Z,3.95
2023-05-10T04:28:53.548Z,3.25
2023-05-10T04:31:22.552Z,4.55
2023-05-10T04:33:50.976Z,3.33
2023-05-10T04:36:20.246Z,3.67
2023-05-10T04:38:49.122Z,3.70
2023-05-10T04:41:18.463Z,4.50
2023-05-10T04:43:50.086Z,4.28
2023-05-10T04:46:19.597Z,2.17
2023-05-10T04:48:47.762Z,2.55
2023-05-10T04:51:17.128Z,4.32
2023-05-10T04:53:57.643Z,3.38
2023-05-10T04:56:35.925Z,2.83
2023-05-10T04:59:07.845Z,2.45
2023-05-10T05:01:38.818Z,4.82
2023-05-10T05:04:07.763Z,3.03
2023-05-10T05:06:36.060Z,5.30
2023-05-10T05:09:05.178Z,2.78
2023-05-10T05:11:34.597Z,4.97
2023-05-10T05:14:02.886Z,4.40
2023-05-10T05:19:03.359Z,4.18
2023-05-10T05:21:33.272Z,4.82
2023-05-10T05:24:02.796Z,5.78
2023-05-10T05:26:32.459Z,5.60
2023-05-10T05:29:00.610Z,4.93
2023-05-10T05:31:30.239Z,4.07
2023-05-10T05:34:01.000Z,4.25
2023-05-10T05:36:30.328Z,4.40
2023-05-10T05:39:00.001Z,4.00
2023-05-10T05:43:56.225Z,4.78
2023-05-10T05:46:25.814Z,4.65
2023-05-10T05:48:55.540Z,5.13
2023-05-10T05:51:26.656Z,4.40
2023-05-10T05:53:55.243Z,4.68
2023-05-10T05:56:25.511Z,4.70
2023-05-10T05:58:55.362Z,7.85
2023-05-10T06:01:23.833Z,3.78
2023-05-10T06:03:53.660Z,5.43
2023-05-10T06:06:23.342Z,3.67
2023-05-10T06:08:52.806Z,5.45
2023-05-10T06:11:22.877Z,3.30
2023-05-10T06:13:53.180Z,4.32
2023-05-10T06:18:52.068Z,4.18
2023-05-10T06:21:21.395Z,4.60
2023-05-10T06:23:52.224Z,4.18
2023-05-10T06:26:23.077Z,5.40
2023-05-10T06:28:52.455Z,5.32
2023-05-10T06:31:22.001Z,5.50
2023-05-10T06:36:18.786Z,4.88
2023-05-10T06:38:48.735Z,9.00
2023-05-10T06:41:19.771Z,3.45
2023-05-10T06:43:47.985Z,5.90
2023-05-10T06:46:17.523Z,5.07
2023-05-10T06:48:45.806Z,5.85
2023-05-10T06:51:13.999Z,6.55
2023-05-10T06:53:43.424Z,5.38
2023-05-10T06:56:13.341Z,496.33
2023-05-10T06:58:44.152Z,295.92
2023-05-10T07:01:13.019Z,265.23
2023-05-10T07:03:43.680Z,245.27
2023-05-10T07:06:21.628Z,94.90
2023-05-10T07:08:56.273Z,13.18
2023-05-10T07:11:26.521Z,30.05
2023-05-10T07:13:57.250Z,199.60
2023-05-10T07:16:26.874Z,210.13
2023-05-10T07:18:58.214Z,68.07
2023-05-10T07:21:29.655Z,6.07
2023-05-10T07:23:58.635Z,6.43
2023-05-10T07:26:29.416Z,7.07
2023-05-10T07:29:00.352Z,6.22
2023-05-10T07:31:29.879Z,5.63
2023-05-10T07:33:58.229Z,6.78
2023-05-10T07:36:30.179Z,7.43
2023-05-10T07:38:59.792Z,6.63
2023-05-10T07:41:29.475Z,6.32
2023-05-10T07:44:00.248Z,6.47
2023-05-10T07:46:31.105Z,6.97
2023-05-10T07:48:59.339Z,7.10
2023-05-10T07:51:30.158Z,6.15
2023-05-10T07:53:59.978Z,5.30
2023-05-10T07:56:32.794Z,7.03
2023-05-10T07:59:05.919Z,8.45
2023-05-10T08:01:36.507Z,7.28
2023-05-10T08:04:05.544Z,8.88
2023-05-10T08:06:35.095Z,9.60
2023-05-10T08:09:04.781Z,25.15
2023-05-10T08:11:35.172Z,214.48
2023-05-10T08:14:07.434Z,253.38
2023-05-10T08:16:36.786Z,8.88
2023-05-10T08:19:05.658Z,110.93
2023-05-10T08:21:35.494Z,8.70
2023-05-10T08:24:05.433Z,8.90
2023-05-10T08:26:35.959Z,7.18
2023-05-10T08:29:06.897Z,8.63
2023-05-10T08:31:35.658Z,9.75
2023-05-10T08:34:05.301Z,8.95
2023-05-10T08:36:36.222Z,10.27
2023-05-10T08:39:07.760Z,10.30
2023-05-10T08:41:45.330Z,10.70
2023-05-10T08:44:16.054Z,8.23
2023-05-10T08:46:49.221Z,8.38
2023-05-10T08:49:21.926Z,7.47
2023-05-10T08:51:56.889Z,6.03
2023-05-10T08:54:26.356Z,9.52
2023-05-10T08:56:56.044Z,12.43
2023-05-10T08:59:25.882Z,11.68
2023-05-10T09:01:57.472Z,13.65
2023-05-10T09:04:27.429Z,8.23
2023-05-10T09:06:57.277Z,11.85
2023-05-10T09:09:28.520Z,10.95
2023-05-10T09:11:58.029Z,11.90
2023-05-10T09:14:29.570Z,8.35
2023-05-10T09:16:59.571Z,11.13
2023-05-10T09:19:28.124Z,13.52
2023-05-10T09:21:57.685Z,11.77
2023-05-10T09:24:30.074Z,15.52
2023-05-10T09:27:00.082Z,16.40
2023-05-10T09:29:41.795Z,15.02
2023-05-10T09:32:13.724Z,11.68
2023-05-10T09:34:44.725Z,11.25
2023-05-10T09:37:14.543Z,12.88
2023-05-10T09:39:42.934Z,12.05
2023-05-10T09:42:13.531Z,14.50
2023-05-10T09:44:44.494Z,12.48
2023-05-10T09:47:19.675Z,10.80
2023-05-10T09:49:52.462Z,8.88
2023-05-10T09:52:23.293Z,11.95
2023-05-10T09:54:56.195Z,9.70
2023-05-10T09:57:28.471Z,8.13
2023-05-10T09:59:59.303Z,10.48
2023-05-10T10:02:31.713Z,7.68
2023-05-10T10:05:05.332Z,6.47
2023-05-10T10:07:34.497Z,9.23
2023-05-10T10:10:03.504Z,8.43
2023-05-10T10:12:33.503Z,10.32
2023-05-10T10:15:07.673Z,10.15
2023-05-10T10:17:40.310Z,13.48
2023-05-10T10:20:12.419Z,11.80
2023-05-10T10:22:40.623Z,13.15
2023-05-10T10:25:15.661Z,13.25
2023-05-10T10:27:57.112Z,11.30
2023-05-10T10:30:33.791Z,8.73
2023-05-10T10:33:38.513Z,8.07
2023-05-10T10:36:08.024Z,5.60
2023-05-10T10:39:00.268Z,7.00
2023-05-10T10:41:33.241Z,5.03
2023-05-10T10:44:40.460Z,4.75
2023-05-10T10:47:29.963Z,5.45
2023-05-10T10:50:10.395Z,6.20
2023-05-10T10:52:42.073Z,4.25
2023-05-10T10:55:12.405Z,5.80
2023-05-10T10:57:49.546Z,7.35
2023-05-10T11:00:38.287Z,6.30
2023-05-10T11:03:09.324Z,8.05
2023-05-10T11:05:42.226Z,7.20
2023-05-10T11:08:18.983Z,5.53
2023-05-10T11:10:55.170Z,4.97
2023-05-10T11:13:31.616Z,3.50
2023-05-10T11:16:03.059Z,4.72
2023-05-10T11:18:34.131Z,5.35
2023-05-10T11:21:07.352Z,5.32
2023-05-10T11:23:52.960Z,3.55
2023-05-10T11:26:24.326Z,5.03
2023-05-10T11:28:57.415Z,4.85
2023-05-10T11:31:28.084Z,3.63
2023-05-10T11:34:02.999Z,4.38
2023-05-10T11:36:37.296Z,3.95
2023-05-10T11:39:07.912Z,3.95
2023-05-10T11:41:36.483Z,4.38
2023-05-10T11:44:07.677Z,3.00
2023-05-10T11:46:36.010Z,4.20
2023-05-10T11:49:08.083Z,3.20
2023-05-10T11:51:37.860Z,3.30
2023-05-10T11:54:11.662Z,2.78
2023-05-10T11:56:43.286Z,3.63
2023-05-10T11:59:12.384Z,4.07
2023-05-10T12:01:41.550Z,6.57
2023-05-10T12:04:12.828Z,5.45
2023-05-10T12:06:43.388Z,4.63
2023-05-10T12:09:12.885Z,4.43
2023-05-10T12:11:44.514Z,6.10
2023-05-10T12:14:14.372Z,11.13
2023-05-10T12:16:45.939Z,6.63
2023-05-10T12:19:21.591Z,9.63
2023-05-10T12:21:49.947Z,7.07
2023-05-10T12:24:18.977Z,7.43
2023-05-10T12:26:49.392Z,7.07
2023-05-10T12:29:21.260Z,9.95
2023-05-10T12:31:55.101Z,8.57
2023-05-10T12:34:33.566Z,9.90
2023-05-10T12:37:03.716Z,7.63
2023-05-10T12:39:43.591Z,9.55
2023-05-10T12:44:43.064Z,7.72
2023-05-10T12:47:11.741Z,9.18
2023-05-10T12:49:42.899Z,5.57
2023-05-10T12:52:11.017Z,8.00
2023-05-10T12:54:40.381Z,9.40
2023-05-10T12:57:09.835Z,6.38
2023-05-10T12:59:40.474Z,6.78
2023-05-10T13:02:12.260Z,7.38
2023-05-10T13:04:41.929Z,6.55
2023-05-10T13:07:10.460Z,7.32
2023-05-10T13:09:38.669Z,9.23
2023-05-10T13:12:10.127Z,6.93
2023-05-10T13:14:41.505Z,6.35
2023-05-10T13:17:12.266Z,6.25
2023-05-10T13:19:43.167Z,5.88
2023-05-10T13:22:13.027Z,8.70
2023-05-10T13:24:42.816Z,6.95
2023-05-10T13:27:11.107Z,6.28
2023-05-10T13:29:39.338Z,9.57
2023-05-10T13:32:08.045Z,7.70
2023-05-10T13:34:38.883Z,6.75
2023-05-10T13:37:11.313Z,6.97
2023-05-10T13:39:39.529Z,7.68
2023-05-10T13:42:07.752Z,8.48
2023-05-10T13:44:37.309Z,4.95
2023-05-10T13:47:06.834Z,3.63
2023-05-10T13:49:37.166Z,4.53
2023-05-10T13:52:07.861Z,4.70
2023-05-10T13:54:38.024Z,4.50
2023-05-10T13:57:07.532Z,3.28
2023-05-10T13:59:36.918Z,5.68
2023-05-10T14:04:34.838Z,5.15
2023-05-10T14:07:04.310Z,4.50
2023-05-10T14:09:32.564Z,3.83
2023-05-10T14:14:32.471Z,4.80
2023-05-10T14:17:01.415Z,5.93
2023-05-10T14:19:31.652Z,6.50
2023-05-10T14:22:01.444Z,4.80
2023-05-10T14:24:31.145Z,5.95
2023-05-10T14:27:00.953Z,6.20
2023-05-10T14:29:30.575Z,8.18
2023-05-10T14:32:00.511Z,7.28
2023-05-10T14:34:28.979Z,8.05
2023-05-10T14:36:58.411Z,5.03
2023-05-10T14:39:26.706Z,6.45
2023-05-10T14:41:56.237Z,8.32
2023-05-10T14:44:26.035Z,6.90
2023-05-10T14:46:58.853Z,8.65
2023-05-10T14:49:29.064Z,5.30
2023-05-10T14:51:58.462Z,4.85
2023-05-10T14:54:28.178Z,6.97
2023-05-10T14:56:57.660Z,5.50
2023-05-10T14:59:27.521Z,6.32
2023-05-10T15:01:57.700Z,4.88
2023-05-10T15:04:28.541Z,5.55
2023-05-10T15:07:00.523Z,6.70
2023-05-10T15:09:31.462Z,7.22
2023-05-10T15:12:01.556Z,4.65
2023-05-10T15:14:31.380Z,7.18
2023-05-10T15:17:03.471Z,6.82
2023-05-10T15:19:31.685Z,4.75
2023-05-10T15:22:01.203Z,7.05
2023-05-10T15:24:30.656Z,4.47
2023-05-10T15:29:27.509Z,6.45
2023-05-10T15:31:56.816Z,5.57
2023-05-10T15:34:26.741Z,5.32
2023-05-10T15:36:56.691Z,6.13
2023-05-10T15:39:25.092Z,8.75
2023-05-10T15:41:55.657Z,7.63
2023-05-10T15:44:25.286Z,6.40
2023-05-10T15:46:54.629Z,9.05
2023-05-10T15:49:24.310Z,6.65
2023-05-10T15:51:56.299Z,9.15
2023-05-10T15:54:26.199Z,10.88
2023-05-10T15:56:55.092Z,7.53
2023-05-10T15:59:26.080Z,9.40
2023-05-10T16:01:54.605Z,9.07
2023-05-10T16:04:25.694Z,8.77
2023-05-10T16:06:56.508Z,9.40
2023-05-10T16:09:25.826Z,11.60
2023-05-10T16:11:55.633Z,9.85
2023-05-10T16:14:26.502Z,10.65
2023-05-10T16:16:54.808Z,13.48
2023-05-10T16:21:53.605Z,11.57
2023-05-10T16:24:24.422Z,9.63
2023-05-10T16:26:54.356Z,12.23
2023-05-10T16:29:24.132Z,8.65
2023-05-10T16:31:53.481Z,7.93
2023-05-10T16:34:25.374Z,8.32
2023-05-10T16:36:53.657Z,7.43
2023-05-10T16:39:22.073Z,8.25
2023-05-10T16:44:22.982Z,7.63
2023-05-10T16:46:55.994Z,8.88
2023-05-10T16:49:26.478Z,7.38
2023-05-10T16:51:56.151Z,6.40
2023-05-10T16:54:26.025Z,4.53
2023-05-10T16:56:55.483Z,6.95
2023-05-10T16:59:23.737Z,6.85
2023-05-10T17:01:54.120Z,6.40
2023-05-10T17:04:22.693Z,6.78
2023-05-10T17:06:52.131Z,7.90
2023-05-10T17:09:23.005Z,7.70
2023-05-10T17:11:51.440Z,5.28
2023-05-10T17:14:22.382Z,6.03
2023-05-10T17:16:52.611Z,8.43
2023-05-10T17:19:24.884Z,13.32
2023-05-10T17:21:56.175Z,4.80
2023-05-10T17:24:28.192Z,6.28
2023-05-10T17:26:57.804Z,5.88
2023-05-10T17:29:30.348Z,8.25
2023-05-10T17:32:00.134Z,12.00
2023-05-10T17:34:30.795Z,17.48
2023-05-10T17:37:00.751Z,6.55
2023-05-10T17:39:29.022Z,7.82
2023-05-10T17:41:59.992Z,5.43
2023-05-10T17:44:29.414Z,8.60
2023-05-10T17:46:58.752Z,8.80
2023-05-10T17:49:29.124Z,6.03
2023-05-10T17:51:58.492Z,4.82
2023-05-10T17:54:26.666Z,6.97
2023-05-10T17:56:56.130Z,9.25
2023-05-10T17:59:24.330Z,9.25
2023-05-10T18:01:56.239Z,9.43
2023-05-10T18:04:24.507Z,10.82
2023-05-10T18:07:00.862Z,11.23
2023-05-10T18:09:30.973Z,8.73
2023-05-10T18:12:00.668Z,9.77
2023-05-10T18:17:12.002Z,10.63
2023-05-10T18:19:40.730Z,10.45
2023-05-10T18:22:10.859Z,10.05
2023-05-10T18:24:41.585Z,11.90
2023-05-10T18:27:10.322Z,13.93
2023-05-10T18:29:38.565Z,13.52
2023-05-10T18:32:08.226Z,10.77
2023-05-10T18:34:38.979Z,13.25
2023-05-10T18:37:10.788Z,13.68
2023-05-10T18:39:39.194Z,13.60
2023-05-10T18:44:37.290Z,13.30
2023-05-10T18:47:08.852Z,14.20
2023-05-10T18:49:38.915Z,13.77
2023-05-10T18:52:09.409Z,13.75
2023-05-10T18:54:38.870Z,14.70
2023-05-10T18:57:08.288Z,14.95
2023-05-10T18:59:36.439Z,14.23
2023-05-10T19:02:07.143Z,14.25
2023-05-10T19:04:35.476Z,14.20
2023-05-10T19:07:06.224Z,15.45
2023-05-10T19:09:34.805Z,13.13
2023-05-10T19:12:04.139Z,13.90
2023-05-10T19:14:33.840Z,13.10
2023-05-10T19:17:03.324Z,11.07
2023-05-10T19:19:32.262Z,14.45
2023-05-10T19:22:01.042Z,13.98
2023-05-10T19:24:30.768Z,14.18
2023-05-10T19:27:02.051Z,13.65
2023-05-10T19:29:32.741Z,14.27
2023-05-10T19:32:02.139Z,15.63
2023-05-10T19:34:32.790Z,13.93
2023-05-10T19:37:02.623Z,12.85
2023-05-10T19:39:33.199Z,13.48
2023-05-10T19:42:01.702Z,12.75
2023-05-10T19:47:01.428Z,14.38
2023-05-10T19:49:29.590Z,18.35
2023-05-10T19:51:58.973Z,17.85
2023-05-10T19:54:27.107Z,14.95
2023-05-10T19:57:00.290Z,15.00
2023-05-10T19:59:29.710Z,14.93
2023-05-10T20:02:00.324Z,13.45
2023-05-10T20:04:30.591Z,20.50
2023-05-10T20:06:59.915Z,24.27
2023-05-10T20:09:28.026Z,25.35
2023-05-10T20:11:58.703Z,17.50
2023-05-10T20:14:28.116Z,16.58
2023-05-10T20:16:57.592Z,17.25
2023-05-10T20:19:28.496Z,17.10
2023-05-10T20:21:58.777Z,14.38
2023-05-10T20:24:28.694Z,14.43
2023-05-10T20:26:59.829Z,14.52
2023-05-10T20:29:29.458Z,14.80
2023-05-10T20:31:58.836Z,14.23
2023-05-10T20:34:29.772Z,15.80
2023-05-10T20:36:58.304Z,22.25
2023-05-10T20:39:30.186Z,16.92
2023-05-10T20:42:00.280Z,13.23
2023-05-10T20:44:28.834Z,16.02
2023-05-10T20:46:57.227Z,16.92
2023-05-10T20:51:56.554Z,13.55
2023-05-10T20:54:25.360Z,15.88
2023-05-10T20:56:55.917Z,16.33
2023-05-10T20:59:25.295Z,20.52
2023-05-10T21:01:54.782Z,19.45
2023-05-10T21:04:22.966Z,15.48
2023-05-10T21:06:54.143Z,16.75
2023-05-10T21:09:23.756Z,18.38
2023-05-10T21:11:54.983Z,18.33
2023-05-10T21:14:26.097Z,19.85
2023-05-10T21:16:55.428Z,17.92
2023-05-10T21:19:24.728Z,19.10
2023-05-10T21:21:55.982Z,17.80
2023-05-10T21:24:24.681Z,18.38
2023-05-10T21:26:54.067Z,16.33
2023-05-10T21:29:22.388Z,17.52
2023-05-10T21:31:54.385Z,19.50
2023-05-10T21:34:23.673Z,16.88
2023-05-10T21:36:52.215Z,18.45
2023-05-10T21:39:20.375Z,16.67
2023-05-10T21:41:49.613Z,17.38
2023-05-10T21:44:21.095Z,17.90
2023-05-10T21:46:51.824Z,16.35
2023-05-10T21:49:21.303Z,18.40
2023-05-10T21:51:50.642Z,16.98
2023-05-10T21:54:19.202Z,18.52
2023-05-10T21:56:47.722Z,18.17
2023-05-10T21:59:18.035Z,16.83
2023-05-10T22:01:46.556Z,17.35
2023-05-10T22:04:17.269Z,17.48
2023-05-10T22:06:46.570Z,17.58
2023-05-10T22:09:16.271Z,16.73
2023-05-10T22:14:15.145Z,15.85
2023-05-10T22:16:45.645Z,18.52
2023-05-10T22:19:16.390Z,19.17
2023-05-10T22:21:45.740Z,14.38
2023-05-10T22:24:13.922Z,17.45
2023-05-10T22:26:44.484Z,15.07
2023-05-10T22:29:14.167Z,16.42
2023-05-10T22:31:45.195Z,16.50
2023-05-10T22:34:13.838Z,16.33
2023-05-10T22:39:13.796Z,15.50
2023-05-10T22:41:43.236Z,15.05
2023-05-10T22:44:12.598Z,16.67
2023-05-10T22:46:40.692Z,16.45
2023-05-10T22:49:11.801Z,13.85
2023-05-10T22:51:39.985Z,17.65
2023-05-10T22:54:10.719Z,15.63
2023-05-10T22:56:38.943Z,15.40
2023-05-10T22:59:09.585Z,16.77
2023-05-10T23:01:38.201Z,16.92
2023-05-10T23:04:07.291Z,15.98
2023-05-10T23:06:35.549Z,15.80
2023-05-10T23:09:06.255Z,15.40
2023-05-10T23:11:35.669Z,15.68
2023-05-10T23:14:05.460Z,16.40
2023-05-10T23:16:35.231Z,15.80
2023-05-10T23:19:03.446Z,18.58
2023-05-10T23:21:34.040Z,17.10
2023-05-10T23:24:02.641Z,17.70
2023-05-10T23:26:30.853Z,16.27
2023-05-10T23:29:01.742Z,18.23
2023-05-10T23:31:32.471Z,18.48
2023-05-10T23:34:03.365Z,19.92
2023-05-10T23:36:34.706Z,18.50
2023-05-10T23:39:03.167Z,18.23
2023-05-10T23:41:34.072Z,18.73
2023-05-10T23:44:03.679Z,19.05
2023-05-10T23:46:31.831Z,18.65
2023-05-10T23:49:02.402Z,18.75
2023-05-10T23:51:31.706Z,20.33
2023-05-10T23:54:02.570Z,21.25
2023-05-10T23:56:31.223Z,22.48
2023-05-10T23:59:01.716Z,22.73
